createdAt,value
2022-09-15T00:02:04.850Z,99369.16
2022-09-15T00:04:31.335Z,99360.28
2022-09-15T00:06:57.647Z,99365.31
2022-09-15T00:09:23.976Z,99365.91
2022-09-15T00:11:50.358Z,99386.25
2022-09-15T00:14:16.677Z,99368.47
2022-09-15T00:16:43.066Z,99367.06
2022-09-15T00:19:09.561Z,99371.16
2022-09-15T00:21:40.710Z,99369.75
2022-09-15T00:24:08.174Z,99379.69
2022-09-15T00:26:35.682Z,99371.41
2022-09-15T00:29:02.853Z,99359.25
2022-09-15T00:31:30.814Z,99366.84
2022-09-15T00:33:58.941Z,99363.00
2022-09-15T00:36:26.786Z,99361.56
2022-09-15T00:38:53.418Z,99361.47
2022-09-15T00:41:22.719Z,99364.16
2022-09-15T00:44:00.759Z,99357.63
2022-09-15T00:46:40.863Z,99369.28
2022-09-15T00:49:18.125Z,99365.44
2022-09-15T00:51:44.421Z,99372.56
2022-09-15T00:54:20.323Z,99379.69
2022-09-15T00:56:49.568Z,99332.13
2022-09-15T00:59:21.058Z,99384.34
2022-09-15T01:01:55.253Z,99380.28
2022-09-15T01:04:21.860Z,99383.19
2022-09-15T01:06:56.244Z,99351.94
2022-09-15T01:09:28.136Z,99378.00
2022-09-15T01:11:54.477Z,99378.00
2022-09-15T01:14:20.856Z,99389.91
2022-09-15T01:17:06.950Z,99392.22
2022-09-15T01:20:03.086Z,99387.19
2022-09-15T01:22:59.460Z,99386.00
2022-09-15T01:25:37.884Z,99385.63
2022-09-15T01:28:22.720Z,99386.25
2022-09-15T01:31:18.350Z,99391.97
2022-09-15T01:33:49.514Z,99393.38
2022-09-15T01:36:25.055Z,99379.28
2022-09-15T01:39:07.181Z,99388.47
2022-09-15T01:41:39.905Z,99387.22
2022-09-15T01:44:13.581Z,99383.13
2022-09-15T01:46:46.933Z,99387.31
2022-09-15T01:49:17.922Z,99381.00
2022-09-15T01:51:48.317Z,99379.22
2022-09-15T01:54:17.436Z,99379.69
2022-09-15T01:56:43.947Z,99374.78
2022-09-15T01:59:11.161Z,99370.59
2022-09-15T02:01:49.579Z,99366.16
2022-09-15T02:04:22.776Z,99363.84
2022-09-15T02:07:20.520Z,99366.88
2022-09-15T02:09:55.605Z,99372.38
2022-09-15T02:12:35.306Z,99379.28
2022-09-15T02:15:12.509Z,99376.72
2022-09-15T02:17:45.673Z,99374.84
2022-09-15T02:20:25.321Z,99372.16
2022-09-15T02:22:57.188Z,99373.22
2022-09-15T02:25:34.721Z,99326.69
2022-09-15T02:28:06.378Z,99377.19
2022-09-15T02:30:36.369Z,99382.78
2022-09-15T02:33:08.295Z,99381.50
2022-09-15T02:35:36.304Z,99378.69
2022-09-15T02:38:06.434Z,99384.72
2022-09-15T02:40:33.410Z,99382.72
2022-09-15T02:43:01.815Z,99384.59
2022-09-15T02:45:31.029Z,99386.69
2022-09-15T02:47:58.494Z,99378.53
2022-09-15T02:50:26.596Z,99340.97
2022-09-15T02:52:57.366Z,99385.88
2022-09-15T02:55:24.053Z,99369.84
2022-09-15T02:57:50.484Z,99390.22
2022-09-15T03:00:17.479Z,99396.31
2022-09-15T03:02:50.125Z,99398.53
2022-09-15T03:05:21.758Z,99395.84
2022-09-15T03:07:48.678Z,99332.97
2022-09-15T03:10:16.026Z,99365.78
2022-09-15T03:12:47.966Z,99397.81
2022-09-15T03:15:16.718Z,99404.13
2022-09-15T03:17:45.502Z,99403.09
2022-09-15T03:20:14.145Z,99371.50
2022-09-15T03:22:40.823Z,99407.97
2022-09-15T03:25:07.677Z,99410.19
2022-09-15T03:27:35.382Z,99394.31
2022-09-15T03:30:01.954Z,99396.09
2022-09-15T03:32:28.400Z,99405.41
2022-09-15T03:34:58.375Z,99397.59
2022-09-15T03:37:25.625Z,99402.03
2022-09-15T03:39:52.066Z,99403.91
2022-09-15T03:42:18.474Z,99406.47
2022-09-15T03:44:44.825Z,99360.78
2022-09-15T03:47:11.242Z,99407.41
2022-09-15T03:49:37.582Z,99401.81
2022-09-15T03:52:04.106Z,99398.75
2022-09-15T03:54:30.842Z,99398.31
2022-09-15T03:56:57.433Z,99390.25
2022-09-15T03:59:23.819Z,99393.16
2022-09-15T04:01:50.778Z,99399.34
2022-09-15T04:04:17.534Z,99416.13
2022-09-15T04:06:44.828Z,99397.25
2022-09-15T04:09:11.441Z,99410.09
2022-09-15T04:11:39.358Z,99408.09
2022-09-15T04:14:05.687Z,99416.94
2022-09-15T04:16:32.101Z,99407.31
2022-09-15T04:18:58.517Z,99412.13
2022-09-15T04:21:26.693Z,99408.97
2022-09-15T04:23:54.078Z,99417.63
2022-09-15T04:26:28.316Z,99416.00
2022-09-15T04:28:54.701Z,99420.88
2022-09-15T04:31:21.304Z,99379.03
2022-09-15T04:33:48.004Z,99415.38
2022-09-15T04:36:23.348Z,99421.13
2022-09-15T04:38:50.991Z,99418.44
2022-09-15T04:41:18.920Z,99421.38
2022-09-15T04:43:45.716Z,99420.28
2022-09-15T04:46:13.935Z,99425.44
2022-09-15T04:48:40.730Z,99420.44
2022-09-15T04:51:10.921Z,99412.97
2022-09-15T04:53:37.791Z,99415.41
2022-09-15T04:56:04.597Z,99412.06
2022-09-15T04:58:31.059Z,99414.28
2022-09-15T05:00:57.556Z,99409.06
2022-09-15T05:03:23.954Z,99411.50
2022-09-15T05:05:50.365Z,99413.13
2022-09-15T05:08:16.704Z,99409.75
2022-09-15T05:10:43.070Z,99409.09
2022-09-15T05:13:09.421Z,99416.31
2022-09-15T05:15:35.749Z,99409.22
2022-09-15T05:18:02.155Z,99422.41
2022-09-15T05:20:29.723Z,99416.00
2022-09-15T05:22:56.100Z,99422.16
2022-09-15T05:25:22.411Z,99423.59
2022-09-15T05:27:48.758Z,99420.09
2022-09-15T05:30:36.652Z,99413.22
2022-09-15T05:33:01.527Z,99420.56
2022-09-15T05:35:27.838Z,99416.25
2022-09-15T05:37:54.165Z,99424.06
2022-09-15T05:40:22.069Z,99422.91
2022-09-15T05:42:48.465Z,99430.34
2022-09-15T05:45:15.075Z,99425.47
2022-09-15T05:47:41.428Z,99430.59
2022-09-15T05:50:08.067Z,99435.84
2022-09-15T05:52:34.478Z,99430.59
2022-09-15T05:55:00.838Z,99427.34
2022-09-15T05:57:27.170Z,99439.28
2022-09-15T05:59:53.497Z,99435.63
2022-09-15T06:02:19.901Z,99433.88
2022-09-15T06:04:46.230Z,99446.06
2022-09-15T06:07:13.046Z,99449.09
2022-09-15T06:09:39.405Z,99446.97
2022-09-15T06:12:05.996Z,99449.53
2022-09-15T06:14:32.382Z,99454.91
2022-09-15T06:16:58.721Z,99465.22
2022-09-15T06:19:25.191Z,99468.47
2022-09-15T06:21:52.154Z,99459.47
2022-09-15T06:24:18.559Z,99456.56
2022-09-15T06:26:44.930Z,99430.13
2022-09-15T06:29:12.029Z,99459.47
2022-09-15T06:31:38.547Z,99466.13
2022-09-15T06:34:05.381Z,99459.72
2022-09-15T06:36:32.735Z,99461.94
2022-09-15T06:38:59.250Z,99467.66
2022-09-15T06:41:26.289Z,99471.16
2022-09-15T06:43:53.144Z,99471.97
2022-09-15T06:46:22.269Z,99479.69
2022-09-15T06:48:49.124Z,99477.59
2022-09-15T06:51:17.338Z,99471.88
2022-09-15T06:53:44.090Z,99475.13
2022-09-15T06:56:19.135Z,99480.16
2022-09-15T06:58:46.566Z,99484.00
2022-09-15T07:01:15.058Z,99474.22
2022-09-15T07:03:43.458Z,99483.44
2022-09-15T07:06:13.975Z,99486.91
2022-09-15T07:08:41.047Z,99425.03
2022-09-15T07:11:09.083Z,99487.16
2022-09-15T07:13:36.072Z,99484.47
2022-09-15T07:16:04.514Z,99508.09
2022-09-15T07:18:31.913Z,99507.28
2022-09-15T07:21:04.107Z,99519.06
2022-09-15T07:23:30.767Z,99457.84
2022-09-15T07:26:19.179Z,99502.47
2022-09-15T07:28:49.802Z,99504.66
2022-09-15T07:31:18.087Z,99514.56
2022-09-15T07:33:44.941Z,99526.91
2022-09-15T07:36:11.582Z,99522.72
2022-09-15T07:38:43.837Z,99510.75
2022-09-15T07:41:15.890Z,99515.91
2022-09-15T07:43:47.444Z,99504.28
2022-09-15T07:46:15.024Z,99511.38
2022-09-15T07:48:45.060Z,99516.38
2022-09-15T07:51:11.738Z,99515.69
2022-09-15T07:53:38.149Z,99515.69
2022-09-15T07:56:04.746Z,99526.03
2022-09-15T07:58:32.629Z,99522.66
2022-09-15T08:01:07.259Z,99528.84
2022-09-15T08:03:33.738Z,99529.63
2022-09-15T08:06:02.069Z,99539.19
2022-09-15T08:08:29.349Z,99545.97
2022-09-15T08:10:56.455Z,99533.88
2022-09-15T08:13:23.083Z,99524.75
2022-09-15T08:15:49.475Z,99543.31
2022-09-15T08:18:16.453Z,99525.22
2022-09-15T08:20:43.100Z,99572.94
2022-09-15T08:23:10.846Z,99538.50
2022-09-15T08:25:38.758Z,99531.75
2022-09-15T08:28:05.411Z,99569.25
2022-09-15T08:30:32.012Z,99567.56
2022-09-15T08:32:58.371Z,99580.91
2022-09-15T08:35:24.801Z,99569.31
2022-09-15T08:37:54.657Z,99592.88
2022-09-15T08:40:26.668Z,99583.78
2022-09-15T08:42:58.215Z,99583.47
2022-09-15T08:45:28.597Z,99580.53
2022-09-15T08:48:00.428Z,99540.66
2022-09-15T08:50:41.390Z,99589.44
2022-09-15T08:53:16.991Z,99594.91
2022-09-15T08:55:52.049Z,99592.09
2022-09-15T08:58:21.497Z,99590.44
2022-09-15T09:00:52.150Z,99604.00
2022-09-15T09:03:34.242Z,99603.09
2022-09-15T09:06:32.581Z,99603.16
2022-09-15T09:09:16.954Z,99602.91
2022-09-15T09:12:05.387Z,99599.63
2022-09-15T09:15:03.843Z,99597.97
2022-09-15T09:17:35.905Z,99608.56
2022-09-15T09:20:22.548Z,99598.19
2022-09-15T09:22:51.576Z,99605.16
2022-09-15T09:25:27.511Z,99603.22
2022-09-15T09:27:58.017Z,99614.88
2022-09-15T09:30:26.178Z,99620.56
2022-09-15T09:33:11.407Z,99628.53
2022-09-15T09:35:46.528Z,99626.75
2022-09-15T09:38:20.804Z,99626.53
2022-09-15T09:40:47.807Z,99628.97
2022-09-15T09:43:15.482Z,99630.97
2022-09-15T09:45:41.878Z,99618.41
2022-09-15T09:48:23.574Z,99571.47
2022-09-15T09:50:50.764Z,99614.25
2022-09-15T09:53:28.700Z,99611.34
2022-09-15T09:56:22.818Z,99615.78
2022-09-15T09:58:49.658Z,99629.44
2022-09-15T10:01:19.251Z,99616.22
2022-09-15T10:03:45.951Z,99618.00
2022-09-15T10:06:16.127Z,99611.38
2022-09-15T10:09:08.470Z,99611.59
2022-09-15T10:11:41.109Z,99609.81
2022-09-15T10:14:18.714Z,99600.41
2022-09-15T10:16:55.070Z,99599.81
2022-09-15T10:19:21.991Z,99607.38
2022-09-15T10:21:48.406Z,99569.34
2022-09-15T10:24:27.670Z,99610.56
2022-09-15T10:27:17.490Z,99621.44
2022-09-15T10:29:43.978Z,99615.50
2022-09-15T10:32:25.189Z,99618.53
2022-09-15T10:35:19.678Z,99607.50
2022-09-15T10:37:57.225Z,99612.91
2022-09-15T10:40:46.411Z,99612.53
2022-09-15T10:43:27.989Z,99608.97
2022-09-15T10:46:13.720Z,99618.03
2022-09-15T10:49:01.778Z,99607.88
2022-09-15T10:51:48.913Z,99600.53
2022-09-15T10:54:46.197Z,99610.66
2022-09-15T10:57:49.798Z,99606.06
2022-09-15T11:00:22.433Z,99608.56
2022-09-15T11:03:18.611Z,99605.03
2022-09-15T11:06:22.602Z,99602.31
2022-09-15T11:09:12.238Z,99609.56
2022-09-15T11:11:56.320Z,99606.38
2022-09-15T11:14:36.636Z,99606.69
2022-09-15T11:17:12.051Z,99608.03
2022-09-15T11:20:09.730Z,99604.44
2022-09-15T11:22:52.801Z,99605.75
2022-09-15T11:25:30.175Z,99617.88
2022-09-15T11:28:10.037Z,99619.03
2022-09-15T11:30:47.673Z,99608.22
2022-09-15T11:33:34.752Z,99597.56
2022-09-15T11:36:18.246Z,99586.81
2022-09-15T11:38:57.569Z,99603.44
2022-09-15T11:41:45.867Z,99590.06
2022-09-15T11:44:34.807Z,99578.19
2022-09-15T11:47:24.700Z,99623.66
2022-09-15T11:50:01.288Z,99620.19
2022-09-15T11:52:40.970Z,99609.44
2022-09-15T11:55:15.683Z,99598.19
2022-09-15T11:57:51.044Z,99615.50
2022-09-15T12:00:17.632Z,99611.81
2022-09-15T12:02:51.320Z,99617.41
2022-09-15T12:05:35.038Z,99615.56
2022-09-15T12:08:18.850Z,99612.44
2022-09-15T12:10:52.213Z,99619.03
2022-09-15T12:13:21.845Z,99613.34
2022-09-15T12:15:49.559Z,99621.53
2022-09-15T12:18:38.467Z,99622.75
2022-09-15T12:21:31.985Z,99567.72
2022-09-15T12:24:07.910Z,99615.56
2022-09-15T12:26:34.574Z,99609.16
2022-09-15T12:29:24.765Z,99610.19
2022-09-15T12:32:10.997Z,99621.31
2022-09-15T12:34:38.685Z,99623.53
2022-09-15T12:37:15.294Z,99621.97
2022-09-15T12:39:44.522Z,99628.34
2022-09-15T12:42:14.696Z,99629.97
2022-09-15T12:44:52.173Z,99626.53
2022-09-15T12:47:29.239Z,99631.47
2022-09-15T12:50:01.530Z,99623.66
2022-09-15T12:52:28.503Z,99629.59
2022-09-15T12:55:02.943Z,99597.75
2022-09-15T12:57:34.161Z,99634.69
2022-09-15T13:00:17.153Z,99635.69
2022-09-15T13:02:46.544Z,99626.38
2022-09-15T13:05:14.212Z,99635.44
2022-09-15T13:07:57.450Z,99633.09
2022-09-15T13:10:33.339Z,99636.22
2022-09-15T13:13:36.529Z,99605.03
2022-09-15T13:16:09.598Z,99628.91
2022-09-15T13:18:36.828Z,99627.78
2022-09-15T13:21:10.149Z,99627.72
2022-09-15T13:23:41.651Z,99632.19
2022-09-15T13:26:12.276Z,99635.28
2022-09-15T13:28:39.471Z,99627.56
2022-09-15T13:31:44.923Z,99631.81
2022-09-15T13:38:17.100Z,99630.69
2022-09-15T13:41:26.076Z,99619.81
2022-09-15T13:44:33.462Z,99632.50
2022-09-15T13:47:33.642Z,99621.78
2022-09-15T13:50:12.158Z,99630.28
2022-09-15T13:52:44.679Z,99636.03
2022-09-15T13:55:20.854Z,99642.69
2022-09-15T14:01:06.933Z,99635.63
2022-09-15T14:03:41.583Z,99640.22
2022-09-15T14:06:22.223Z,99632.69
2022-09-15T14:08:53.281Z,99635.22
2022-09-15T14:11:29.566Z,99639.25
2022-09-15T14:13:57.494Z,99636.13
2022-09-15T14:16:27.703Z,99632.44
2022-09-15T14:18:56.390Z,99629.25
2022-09-15T14:21:27.522Z,99630.56
2022-09-15T14:23:56.940Z,99639.25
2022-09-15T14:26:29.186Z,99640.94
2022-09-15T14:28:58.623Z,99634.91
2022-09-15T14:31:35.809Z,99640.38
2022-09-15T14:34:05.250Z,99642.16
2022-09-15T14:36:33.315Z,99651.00
2022-09-15T14:39:03.760Z,99644.72
2022-09-15T14:41:33.281Z,99648.63
2022-09-15T14:43:59.618Z,99643.72
2022-09-15T14:46:36.413Z,99640.78
2022-09-15T14:49:12.364Z,99637.69
2022-09-15T14:51:39.022Z,99582.56
2022-09-15T14:54:10.671Z,99642.91
2022-09-15T14:56:40.343Z,99638.66
2022-09-15T14:59:16.493Z,99600.56
2022-09-15T15:01:52.343Z,99592.38
2022-09-15T15:04:21.631Z,99639.69
2022-09-15T15:07:16.916Z,99627.41
2022-09-15T15:09:48.057Z,99586.72
2022-09-15T15:12:28.770Z,99624.47
2022-09-15T15:14:56.298Z,99628.56
2022-09-15T15:17:30.231Z,99631.84
2022-09-15T15:20:03.913Z,99589.97
2022-09-15T15:22:30.287Z,99631.25
2022-09-15T15:24:56.972Z,99594.19
2022-09-15T15:27:32.294Z,99633.59
2022-09-15T15:30:30.775Z,99628.50
2022-09-15T15:33:03.958Z,99631.44
2022-09-15T15:35:31.943Z,99632.19
2022-09-15T15:38:19.330Z,99634.00
2022-09-15T15:40:46.803Z,99583.66
2022-09-15T15:43:23.988Z,99632.53
2022-09-15T15:45:58.186Z,99641.47
2022-09-15T15:48:26.503Z,99611.06
2022-09-15T15:50:53.375Z,99597.59
2022-09-15T15:53:19.995Z,99646.56
2022-09-15T15:55:46.585Z,99650.25
2022-09-15T15:58:14.626Z,99643.97
2022-09-15T16:00:47.226Z,99640.31
2022-09-15T16:03:15.260Z,99641.28
2022-09-15T16:05:44.667Z,99643.97
2022-09-15T16:08:27.095Z,99646.66
2022-09-15T16:10:54.643Z,99646.66
2022-09-15T16:13:22.572Z,99632.38
2022-09-15T16:15:49.573Z,99634.25
2022-09-15T16:18:16.174Z,99632.84
2022-09-15T16:20:42.862Z,99634.19
2022-09-15T16:23:20.737Z,99592.28
2022-09-15T16:26:01.721Z,99637.75
2022-09-15T16:28:31.570Z,99642.69
2022-09-15T16:30:58.530Z,99644.81
2022-09-15T16:33:25.879Z,99638.56
2022-09-15T16:36:03.693Z,99639.91
2022-09-15T16:38:30.060Z,99640.13
2022-09-15T16:40:56.509Z,99645.78
2022-09-15T16:43:23.088Z,99634.31
2022-09-15T16:45:51.459Z,99638.31
2022-09-15T16:48:18.366Z,99641.59
2022-09-15T16:51:01.744Z,99649.00
2022-09-15T16:53:30.835Z,99650.81
2022-09-15T16:55:57.189Z,99646.75
2022-09-15T16:58:23.501Z,99644.75
2022-09-15T17:00:53.982Z,99648.19
2022-09-15T17:03:23.853Z,99650.78
2022-09-15T17:05:52.518Z,99649.78
2022-09-15T17:08:24.734Z,99650.72
2022-09-15T17:10:52.929Z,99653.81
2022-09-15T17:13:24.012Z,99645.63
2022-09-15T17:15:54.165Z,99671.38
2022-09-15T17:18:21.915Z,99660.03
2022-09-15T17:20:49.956Z,99657.81
2022-09-15T17:23:28.014Z,99659.94
2022-09-15T17:25:58.356Z,99657.25
2022-09-15T17:28:27.649Z,99656.09
2022-09-15T17:31:01.025Z,99656.56
2022-09-15T17:33:28.910Z,99653.31
2022-09-15T17:35:55.522Z,99665.13
2022-09-15T17:38:22.431Z,99661.84
2022-09-15T17:40:49.919Z,99653.19
2022-09-15T17:43:21.193Z,99657.16
2022-09-15T17:45:48.977Z,99662.22
2022-09-15T17:48:16.257Z,99659.19
2022-09-15T17:50:42.925Z,99658.84
2022-09-15T17:53:17.036Z,99657.69
2022-09-15T17:55:44.010Z,99676.19
2022-09-15T17:58:10.774Z,99653.47
2022-09-15T18:00:39.405Z,99597.34
2022-09-15T18:03:14.588Z,99658.28
2022-09-15T18:05:40.944Z,99663.19
2022-09-15T18:08:09.683Z,99671.75
2022-09-15T18:10:36.808Z,99669.03
2022-09-15T18:13:05.266Z,99628.44
2022-09-15T18:15:34.273Z,99685.91
2022-09-15T18:18:04.228Z,99676.66
2022-09-15T18:20:32.847Z,99677.13
2022-09-15T18:23:00.033Z,99683.81
2022-09-15T18:25:32.331Z,99683.47
2022-09-15T18:27:59.930Z,99683.34
2022-09-15T18:30:28.725Z,99688.16
2022-09-15T18:32:56.997Z,99691.44
2022-09-15T18:35:23.605Z,99688.72
2022-09-15T18:37:58.798Z,99689.53
2022-09-15T18:40:26.093Z,99691.44
2022-09-15T18:42:52.759Z,99693.88
2022-09-15T18:45:20.084Z,99698.66
2022-09-15T18:47:49.101Z,99685.34
2022-09-15T18:50:17.340Z,99692.94
2022-09-15T18:52:44.331Z,99659.41
2022-09-15T18:55:16.208Z,99699.63
2022-09-15T18:57:43.161Z,99695.84
2022-09-15T19:00:15.994Z,99702.53
2022-09-15T19:02:42.652Z,99701.50
2022-09-15T19:05:12.342Z,99705.81
2022-09-15T19:07:39.118Z,99673.22
2022-09-15T19:10:10.804Z,99674.97
2022-09-15T19:12:37.927Z,99656.84
2022-09-15T19:15:10.671Z,99706.50
2022-09-15T19:17:39.283Z,99703.44
2022-09-15T19:20:08.421Z,99693.06
2022-09-15T19:22:35.859Z,99709.91
2022-09-15T19:25:02.938Z,99710.34
2022-09-15T19:27:29.520Z,99716.56
2022-09-15T19:29:56.026Z,99660.56
2022-09-15T19:32:22.640Z,99718.31
2022-09-15T19:34:49.474Z,99717.84
2022-09-15T19:37:19.162Z,99724.28
2022-09-15T19:39:46.557Z,99732.56
2022-09-15T19:42:13.287Z,99721.66
2022-09-15T19:44:41.668Z,99728.25
2022-09-15T19:47:08.971Z,99728.25
2022-09-15T19:49:36.429Z,99734.69
2022-09-15T19:52:02.834Z,99729.94
2022-09-15T19:54:30.186Z,99731.25
2022-09-15T19:56:57.048Z,99728.78
2022-09-15T19:59:27.436Z,99728.31
2022-09-15T20:01:56.668Z,99740.34
2022-09-15T20:04:23.017Z,99738.50
2022-09-15T20:06:50.316Z,99747.47
2022-09-15T20:09:17.542Z,99742.91
2022-09-15T20:11:43.835Z,99741.75
2022-09-15T20:14:10.268Z,99742.56
2022-09-15T20:16:37.030Z,99695.69
2022-09-15T20:19:04.563Z,99763.13
2022-09-15T20:21:49.371Z,99755.88
2022-09-15T20:24:17.467Z,99745.22
2022-09-15T20:26:43.813Z,99742.53
2022-09-15T20:29:10.364Z,99751.44
2022-09-15T20:31:36.830Z,99752.91
2022-09-15T20:34:03.225Z,99753.63
2022-09-15T20:36:35.402Z,99749.94
2022-09-15T20:39:04.681Z,99757.66
2022-09-15T20:41:33.871Z,99756.47
2022-09-15T20:44:00.773Z,99765.34
2022-09-15T20:46:29.276Z,99761.50
2022-09-15T20:48:55.588Z,99764.84
2022-09-15T20:51:24.224Z,99769.66
2022-09-15T20:53:52.876Z,99764.94
2022-09-15T20:56:24.825Z,99765.16
2022-09-15T20:58:52.643Z,99772.84
2022-09-15T21:01:38.759Z,99767.34
2022-09-15T21:04:07.847Z,99783.94
2022-09-15T21:06:35.030Z,99766.81
2022-09-15T21:09:01.692Z,99766.00
2022-09-15T21:11:28.973Z,99768.69
2022-09-15T21:13:56.272Z,99712.97
2022-09-15T21:16:25.498Z,99773.91
2022-09-15T21:18:52.615Z,99747.81
2022-09-15T21:21:21.922Z,99779.38
2022-09-15T21:23:51.365Z,99776.97
2022-09-15T21:26:20.127Z,99782.81
2022-09-15T21:28:47.514Z,99779.72
2022-09-15T21:31:16.298Z,99779.72
2022-09-15T21:33:43.718Z,99777.50
2022-09-15T21:36:18.074Z,99786.97
2022-09-15T21:38:44.752Z,99783.53
2022-09-15T21:41:13.957Z,99788.91
2022-09-15T21:43:43.841Z,99802.31
2022-09-15T21:46:13.714Z,99800.94
2022-09-15T21:48:40.444Z,99804.84
2022-09-15T21:51:11.607Z,99802.78
2022-09-15T21:53:38.162Z,99802.63
2022-09-15T21:56:08.384Z,99749.31
2022-09-15T21:58:42.472Z,99796.94
2022-09-15T22:01:11.439Z,99793.66
2022-09-15T22:03:44.742Z,99788.97
2022-09-15T22:06:12.485Z,99792.31
2022-09-15T22:08:40.065Z,99808.84
2022-09-15T22:11:07.247Z,99795.47
2022-09-15T22:13:36.287Z,99804.19
2022-09-15T22:16:06.856Z,99811.25
2022-09-15T22:18:36.995Z,99804.25
2022-09-15T22:21:09.219Z,99810.63
2022-09-15T22:23:36.280Z,99809.63
2022-09-15T22:26:04.207Z,99809.41
2022-09-15T22:28:31.388Z,99807.31
2022-09-15T22:30:59.564Z,99812.91
2022-09-15T22:33:26.233Z,99806.72
2022-09-15T22:35:52.884Z,99817.03
2022-09-15T22:38:20.203Z,99805.91
2022-09-15T22:40:46.672Z,99786.03
2022-09-15T22:43:13.214Z,99814.47
2022-09-15T22:45:39.774Z,99811.59
2022-09-15T22:48:06.265Z,99784.50
2022-09-15T22:50:32.824Z,99814.06
2022-09-15T22:52:59.318Z,99812.00
2022-09-15T22:55:25.648Z,99805.56
2022-09-15T22:57:52.096Z,99801.44
2022-09-15T23:00:18.531Z,99797.91
2022-09-15T23:02:46.584Z,99806.59
2022-09-15T23:05:13.168Z,99807.19
2022-09-15T23:07:39.548Z,99796.88
2022-09-15T23:10:06.304Z,99764.09
2022-09-15T23:12:32.953Z,99800.00
2022-09-15T23:15:03.798Z,99783.69
2022-09-15T23:17:31.192Z,99784.06
2022-09-15T23:19:57.584Z,99791.53
2022-09-15T23:22:23.956Z,99778.31
2022-09-15T23:24:50.383Z,99774.41
2022-09-15T23:27:16.922Z,99778.91
2022-09-15T23:29:43.313Z,99784.41
2022-09-15T23:32:09.820Z,99785.78
2022-09-15T23:34:36.215Z,99785.78
2022-09-15T23:37:02.932Z,99785.78
2022-09-15T23:39:29.754Z,99791.19
2022-09-15T23:41:56.500Z,99791.00
2022-09-15T23:44:23.461Z,99788.16
2022-09-15T23:46:49.846Z,99784.47
2022-09-15T23:49:18.681Z,99790.88
2022-09-15T23:51:45.302Z,99790.47
2022-09-15T23:54:11.676Z,99789.47
2022-09-15T23:56:38.279Z,99798.72
2022-09-15T23:59:04.663Z,99797.09
